createdAt,value
2022-11-23T00:04:29.210Z,99004.91
2022-11-23T00:09:53.412Z,99000.28
2022-11-23T00:15:18.530Z,99005.47
2022-11-23T00:20:47.017Z,98999.34
2022-11-23T00:26:15.959Z,98994.16
2022-11-23T00:31:50.964Z,98997.72
2022-11-23T00:37:17.367Z,99001.13
2022-11-23T00:42:49.467Z,99004.03
2022-11-23T00:48:27.343Z,99008.13
2022-11-23T00:54:08.956Z,99012.78
2022-11-23T00:59:49.146Z,99016.06
2022-11-23T01:05:16.653Z,99014.59
2022-11-23T01:10:52.507Z,99015.16
2022-11-23T01:16:23.612Z,99012.16
2022-11-23T01:21:52.542Z,99011.34
2022-11-23T01:27:32.451Z,99005.47
2022-11-23T01:33:16.204Z,99004.53
2022-11-23T01:38:57.507Z,99013.41
2022-11-23T01:44:48.439Z,99015.88
2022-11-23T01:50:41.436Z,99016.44
2022-11-23T01:56:10.941Z,99024.22
2022-11-23T02:01:34.673Z,99018.75
2022-11-23T02:07:00.062Z,99031.31
2022-11-23T02:12:41.174Z,99030.25
2022-11-23T02:18:23.218Z,99023.00
2022-11-23T02:24:07.917Z,99025.88
2022-11-23T02:29:35.471Z,99031.06
2022-11-23T02:35:06.301Z,99025.72
2022-11-23T02:40:42.426Z,99022.16
2022-11-23T02:46:13.955Z,99029.16
2022-11-23T02:51:43.387Z,99028.59
2022-11-23T02:57:09.775Z,99035.41
2022-11-23T03:02:42.027Z,99035.16
2022-11-23T03:08:06.949Z,99044.19
2022-11-23T03:13:32.227Z,99034.75
2022-11-23T03:19:09.269Z,99050.75
2022-11-23T03:24:46.275Z,99053.63
2022-11-23T03:30:14.978Z,99054.59
2022-11-23T03:35:43.377Z,99052.94
2022-11-23T03:41:17.313Z,99053.34
2022-11-23T03:46:55.143Z,99046.13
2022-11-23T03:52:22.123Z,99058.31
2022-11-23T03:57:48.770Z,99055.56
2022-11-23T04:03:12.851Z,99055.72
2022-11-23T04:14:23.744Z,99061.56
2022-11-23T04:19:47.060Z,99060.06
2022-11-23T04:25:19.559Z,99072.06
2022-11-23T04:30:57.378Z,99062.34
2022-11-23T04:36:26.207Z,99056.06
2022-11-23T04:41:59.523Z,99058.91
2022-11-23T04:47:32.422Z,99055.34
2022-11-23T04:52:56.237Z,99056.84
2022-11-23T04:58:48.379Z,99056.53
2022-11-23T05:04:31.989Z,99058.16
2022-11-23T05:10:01.979Z,99061.13
2022-11-23T05:15:29.048Z,99053.88
2022-11-23T05:20:56.186Z,99059.47
2022-11-23T05:26:19.372Z,99054.13
2022-11-23T05:31:47.226Z,99048.63
2022-11-23T05:37:18.018Z,99048.19
2022-11-23T05:42:45.695Z,99054.84
2022-11-23T05:48:16.354Z,99044.72
2022-11-23T05:53:40.351Z,99053.72
2022-11-23T05:59:03.395Z,99064.34
2022-11-23T06:04:30.326Z,99063.53
2022-11-23T06:10:09.382Z,99058.53
2022-11-23T06:15:34.466Z,99065.59
2022-11-23T06:21:11.736Z,99059.22
2022-11-23T06:26:41.287Z,99059.06
2022-11-23T06:32:11.587Z,99062.06
2022-11-23T06:37:39.351Z,99071.44
2022-11-23T06:43:04.855Z,99072.63
2022-11-23T06:48:43.020Z,99084.78
2022-11-23T06:54:10.021Z,99082.75
2022-11-23T06:59:44.773Z,99089.06
2022-11-23T07:05:12.484Z,99088.25
2022-11-23T07:10:49.034Z,99088.38
2022-11-23T07:16:30.069Z,99096.22
2022-11-23T07:22:02.966Z,99091.03
2022-11-23T07:27:53.294Z,99103.75
2022-11-23T07:33:29.735Z,99101.56
2022-11-23T07:39:02.793Z,99097.91
2022-11-23T07:44:29.842Z,99110.50
2022-11-23T07:50:20.924Z,99117.50
2022-11-23T07:55:47.920Z,99111.66
2022-11-23T08:01:19.346Z,99125.78
2022-11-23T08:06:50.522Z,99129.59
2022-11-23T08:12:22.265Z,99128.75
2022-11-23T08:17:58.354Z,99125.38
2022-11-23T08:23:25.936Z,99120.50
2022-11-23T08:28:51.065Z,99127.50
2022-11-23T08:34:31.913Z,99120.53
2022-11-23T08:39:56.256Z,99115.59
2022-11-23T08:45:21.790Z,99121.75
2022-11-23T08:50:55.542Z,99122.88
2022-11-23T08:56:24.562Z,99125.97
2022-11-23T09:01:52.882Z,99131.31
2022-11-23T09:07:24.961Z,99126.34
2022-11-23T09:12:48.605Z,99133.06
2022-11-23T09:18:18.618Z,99135.91
2022-11-23T09:23:44.245Z,99138.91
2022-11-23T09:29:15.463Z,99147.75
2022-11-23T09:34:41.309Z,99144.00
2022-11-23T09:40:10.729Z,99128.78
2022-11-23T09:45:45.298Z,99129.94
2022-11-23T09:51:23.644Z,99133.97
2022-11-23T09:56:54.878Z,99131.22
2022-11-23T10:02:28.209Z,99128.06
2022-11-23T10:08:07.138Z,99124.44
2022-11-23T10:13:45.931Z,99127.22
2022-11-23T10:19:25.139Z,99129.88
2022-11-23T10:25:03.674Z,99122.50
2022-11-23T10:30:40.320Z,99119.38
2022-11-23T10:36:05.991Z,99116.31
2022-11-23T10:41:33.151Z,99107.84
2022-11-23T10:47:03.576Z,99112.28
2022-11-23T10:52:31.271Z,99097.47
2022-11-23T10:57:57.305Z,99101.56
2022-11-23T11:03:27.218Z,99100.25
2022-11-23T11:09:12.211Z,99104.44
2022-11-23T11:14:54.537Z,99098.81
2022-11-23T11:20:40.942Z,99097.75
2022-11-23T11:26:30.731Z,99099.06
2022-11-23T11:32:02.242Z,99085.53
2022-11-23T11:37:40.588Z,99091.41
2022-11-23T11:43:10.522Z,99089.78
2022-11-23T11:48:41.636Z,99087.50
2022-11-23T11:54:26.241Z,99087.03
2022-11-23T12:00:01.000Z,99088.97
2022-11-23T12:05:33.570Z,99092.53
2022-11-23T12:11:10.441Z,99093.72
2022-11-23T12:17:17.340Z,99089.47
2022-11-23T12:23:08.743Z,99081.47
2022-11-23T12:29:20.908Z,99085.28
2022-11-23T12:35:12.410Z,99081.19
2022-11-23T12:40:54.435Z,99079.06
2022-11-23T12:46:28.612Z,99081.34
2022-11-23T12:52:14.791Z,99081.50
2022-11-23T12:57:55.249Z,99088.84
2022-11-23T13:03:48.053Z,99078.56
2022-11-23T13:09:50.274Z,99076.25
2022-11-23T13:15:50.734Z,99075.94
2022-11-23T13:21:31.243Z,99079.34
2022-11-23T13:27:36.243Z,99081.97
2022-11-23T13:33:44.251Z,99080.19
2022-11-23T13:39:11.485Z,99077.72
2022-11-23T13:44:44.422Z,99067.41
2022-11-23T13:50:21.904Z,99073.28
2022-11-23T13:56:03.059Z,99071.63
2022-11-23T14:02:05.904Z,99064.44
2022-11-23T14:07:47.138Z,99068.81
2022-11-23T14:13:22.160Z,99066.81
2022-11-23T14:19:16.945Z,99073.84
2022-11-23T14:25:28.881Z,99071.06
2022-11-23T14:31:11.431Z,99072.50
2022-11-23T14:36:51.344Z,99073.66
2022-11-23T14:42:22.359Z,99073.94
2022-11-23T14:47:49.935Z,99076.88
2022-11-23T14:53:15.308Z,99080.94
2022-11-23T14:58:40.202Z,99090.72
2022-11-23T15:04:13.531Z,99090.06
2022-11-23T15:09:55.330Z,99097.38
2022-11-23T15:15:38.680Z,99091.00
2022-11-23T15:21:37.074Z,99097.50
2022-11-23T15:27:12.593Z,99099.25
2022-11-23T15:32:58.926Z,99100.72
2022-11-23T15:44:04.471Z,99106.31
2022-11-23T15:49:38.127Z,99102.03
2022-11-23T15:55:18.124Z,99104.19
2022-11-23T16:00:48.117Z,99103.75
2022-11-23T16:06:26.282Z,99101.09
2022-11-23T16:12:10.636Z,99105.56
2022-11-23T16:17:39.003Z,99110.38
2022-11-23T16:29:18.103Z,99104.28
2022-11-23T16:34:48.702Z,99109.56
2022-11-23T16:40:17.383Z,99110.63
2022-11-23T16:45:58.449Z,99119.16
2022-11-23T16:51:30.311Z,99126.22
2022-11-23T16:57:06.447Z,99131.19
2022-11-23T17:02:35.122Z,99139.72
2022-11-23T17:08:09.626Z,99142.09
2022-11-23T17:13:50.465Z,99135.81
2022-11-23T17:19:27.630Z,99133.78
2022-11-23T17:25:17.973Z,99132.84
2022-11-23T17:30:41.943Z,99137.81
2022-11-23T17:36:25.399Z,99145.09
2022-11-23T17:41:49.046Z,99151.97
2022-11-23T17:47:23.840Z,99155.13
2022-11-23T17:52:50.419Z,99154.81
2022-11-23T17:58:22.458Z,99167.59
2022-11-23T18:03:53.383Z,99168.00
2022-11-23T18:09:37.602Z,99175.44
2022-11-23T18:15:12.642Z,99187.19
2022-11-23T18:20:43.366Z,99181.16
2022-11-23T18:26:24.927Z,99182.53
2022-11-23T18:32:12.673Z,99189.94
2022-11-23T18:37:39.906Z,99193.22
2022-11-23T18:43:10.257Z,99201.56
2022-11-23T18:48:43.275Z,99202.81
2022-11-23T18:54:14.684Z,99211.28
2022-11-23T18:59:57.846Z,99204.97
2022-11-23T19:05:32.375Z,99212.47
2022-11-23T19:10:57.410Z,99218.22
2022-11-23T19:16:27.551Z,99216.38
2022-11-23T19:22:22.167Z,99229.13
2022-11-23T19:28:06.653Z,99244.66
2022-11-23T19:34:00.725Z,99246.97
2022-11-23T19:39:24.891Z,99251.28
2022-11-23T19:45:15.909Z,99259.72
2022-11-23T19:50:59.627Z,99262.84
2022-11-23T19:56:30.766Z,99261.84
2022-11-23T20:02:02.740Z,99265.88
2022-11-23T20:07:35.702Z,99270.75
2022-11-23T20:13:01.460Z,99276.59
2022-11-23T20:18:31.640Z,99278.06
2022-11-23T20:24:20.871Z,99291.28
2022-11-23T20:29:56.360Z,99291.81
2022-11-23T20:35:28.703Z,99290.78
2022-11-23T20:41:00.854Z,99297.28
2022-11-23T20:47:01.951Z,99303.53
2022-11-23T20:52:32.183Z,99297.31
2022-11-23T20:58:15.510Z,99307.50
2022-11-23T21:03:46.162Z,99307.97
2022-11-23T21:09:19.529Z,99312.00
2022-11-23T21:15:06.394Z,99306.94
2022-11-23T21:20:42.378Z,99322.13
2022-11-23T21:26:13.032Z,99328.50
2022-11-23T21:31:57.108Z,99332.13
2022-11-23T21:37:39.066Z,99331.56
2022-11-23T21:43:10.323Z,99330.97
2022-11-23T21:48:58.431Z,99349.25
2022-11-23T21:54:32.684Z,99347.84
2022-11-23T21:59:57.821Z,99348.06
2022-11-23T22:05:31.826Z,99340.41
2022-11-23T22:11:13.903Z,99350.91
2022-11-23T22:16:42.562Z,99353.75
2022-11-23T22:22:31.754Z,99351.97
2022-11-23T22:28:26.843Z,99349.50
2022-11-23T22:34:02.440Z,99357.38
2022-11-23T22:39:36.788Z,99371.28
2022-11-23T22:45:06.795Z,99364.47
2022-11-23T22:50:56.106Z,99376.56
2022-11-23T22:56:23.422Z,99373.41
2022-11-23T23:07:34.315Z,99381.44
2022-11-23T23:13:01.375Z,99379.75
2022-11-23T23:24:27.841Z,99393.09
2022-11-23T23:35:36.517Z,99413.09
2022-11-23T23:41:07.443Z,99414.50
2022-11-23T23:46:35.611Z,99402.03
2022-11-23T23:52:06.835Z,99405.31
2022-11-23T23:57:32.405Z,99408.16
